createdAt,value
2023-03-24T00:01:27.069Z,100.00
2023-03-24T00:03:53.604Z,100.00
2023-03-24T00:06:22.464Z,100.00
2023-03-24T00:08:48.988Z,100.00
2023-03-24T00:11:18.266Z,100.00
2023-03-24T00:13:46.898Z,100.00
2023-03-24T00:16:16.731Z,100.00
2023-03-24T00:18:43.171Z,100.00
2023-03-24T00:21:11.504Z,100.00
2023-03-24T00:23:38.252Z,100.00
2023-03-24T00:26:08.798Z,100.00
2023-03-24T00:28:36.860Z,100.00
2023-03-24T00:31:05.482Z,100.00
2023-03-24T00:33:34.792Z,100.00
2023-03-24T00:36:03.739Z,100.00
2023-03-24T00:38:30.142Z,100.00
2023-03-24T00:40:56.796Z,100.00
2023-03-24T00:43:23.387Z,100.00
2023-03-24T00:45:52.234Z,100.00
2023-03-24T00:48:20.247Z,100.00
2023-03-24T00:50:48.744Z,100.00
2023-03-24T00:53:16.895Z,100.00
2023-03-24T00:55:45.952Z,100.00
2023-03-24T00:58:18.025Z,100.00
2023-03-24T01:00:46.105Z,100.00
2023-03-24T01:03:13.532Z,100.00
2023-03-24T01:05:41.240Z,100.00
2023-03-24T01:08:10.084Z,100.00
2023-03-24T01:10:53.094Z,100.00
2023-03-24T01:13:26.444Z,100.00
2023-03-24T01:15:54.096Z,100.00
2023-03-24T01:18:21.491Z,100.00
2023-03-24T01:20:51.232Z,100.00
2023-03-24T01:23:21.822Z,100.00
2023-03-24T01:25:49.968Z,100.00
2023-03-24T01:28:21.535Z,100.00
2023-03-24T01:30:47.914Z,100.00
2023-03-24T01:33:14.333Z,100.00
2023-03-24T01:35:41.070Z,100.00
2023-03-24T01:38:09.564Z,100.00
2023-03-24T01:40:38.824Z,100.00
2023-03-24T01:43:07.415Z,100.00
2023-03-24T01:45:59.995Z,100.00
2023-03-24T01:48:41.377Z,100.00
2023-03-24T01:51:22.967Z,100.00
2023-03-24T01:53:59.291Z,100.00
2023-03-24T01:56:27.965Z,100.00
2023-03-24T01:59:02.445Z,100.00
2023-03-24T02:02:04.413Z,100.00
2023-03-24T02:04:42.533Z,100.00
2023-03-24T02:07:20.028Z,100.00
2023-03-24T02:09:46.537Z,100.00
2023-03-24T02:12:13.515Z,100.00
2023-03-24T02:14:40.934Z,100.00
2023-03-24T02:17:30.055Z,100.00
2023-03-24T02:20:14.934Z,100.00
2023-03-24T02:23:01.013Z,100.00
2023-03-24T02:25:45.745Z,100.00
2023-03-24T02:28:50.613Z,100.00
2023-03-24T02:31:17.205Z,100.00
2023-03-24T02:34:16.885Z,100.00
2023-03-24T02:36:49.598Z,100.00
2023-03-24T02:39:34.716Z,100.00
2023-03-24T02:42:26.045Z,100.00
2023-03-24T02:45:07.503Z,100.00
2023-03-24T02:47:51.473Z,100.00
2023-03-24T02:50:28.833Z,100.00
2023-03-24T02:53:13.766Z,100.00
2023-03-24T02:56:02.289Z,100.00
2023-03-24T02:58:37.026Z,100.00
2023-03-24T03:01:18.841Z,100.00
2023-03-24T03:04:12.665Z,100.00
2023-03-24T03:06:43.410Z,100.00
2023-03-24T03:09:14.066Z,100.00
2023-03-24T03:11:44.998Z,100.00
2023-03-24T03:14:20.697Z,100.00
2023-03-24T03:16:53.378Z,100.00
2023-03-24T03:19:38.525Z,100.00
2023-03-24T03:22:10.426Z,100.00
2023-03-24T03:24:52.946Z,100.00
2023-03-24T03:27:27.567Z,100.00
2023-03-24T03:30:00.177Z,100.00
2023-03-24T03:32:31.623Z,100.00
2023-03-24T03:35:06.553Z,100.00
2023-03-24T03:37:55.387Z,100.00
2023-03-24T03:40:47.962Z,100.00
2023-03-24T03:43:18.958Z,100.00
2023-03-24T03:45:46.135Z,100.00
2023-03-24T03:48:15.716Z,100.00
2023-03-24T03:50:42.453Z,100.00
2023-03-24T03:53:09.681Z,100.00
2023-03-24T03:55:36.174Z,100.00
2023-03-24T03:58:04.541Z,100.00
2023-03-24T04:00:37.234Z,100.00
2023-03-24T04:03:51.275Z,100.00
2023-03-24T04:06:25.227Z,100.00
2023-03-24T04:09:06.239Z,100.00
2023-03-24T04:11:45.776Z,100.00
2023-03-24T04:14:53.631Z,100.00
2023-03-24T04:17:55.557Z,100.00
2023-03-24T04:21:08.694Z,100.00
2023-03-24T04:23:46.387Z,100.00
2023-03-24T04:26:27.336Z,100.00
2023-03-24T04:29:22.520Z,100.00
2023-03-24T04:31:59.033Z,100.00
2023-03-24T04:34:32.622Z,100.00
2023-03-24T04:37:22.097Z,100.00
2023-03-24T04:40:05.958Z,100.00
2023-03-24T04:42:41.294Z,100.00
2023-03-24T04:45:08.982Z,100.00
2023-03-24T04:47:43.846Z,100.00
2023-03-24T04:50:37.658Z,100.00
2023-03-24T04:53:08.805Z,100.00
2023-03-24T04:56:18.159Z,100.00
2023-03-24T04:59:17.484Z,100.00
2023-03-24T05:01:51.777Z,100.00
2023-03-24T05:04:36.938Z,100.00
2023-03-24T05:07:27.078Z,100.00
2023-03-24T05:09:57.458Z,100.00
2023-03-24T05:12:23.981Z,100.00
2023-03-24T05:15:10.718Z,100.00
2023-03-24T05:17:37.697Z,100.00
2023-03-24T05:20:10.508Z,100.00
2023-03-24T05:22:38.957Z,100.00
2023-03-24T05:25:05.904Z,100.00
2023-03-24T05:27:32.489Z,100.00
2023-03-24T05:30:09.030Z,100.00
2023-03-24T05:32:37.989Z,100.00
2023-03-24T05:35:05.177Z,100.00
2023-03-24T05:37:33.406Z,100.00
2023-03-24T05:39:59.730Z,100.00
2023-03-24T05:42:40.361Z,100.00
2023-03-24T05:45:08.512Z,100.00
2023-03-24T05:47:37.877Z,100.00
2023-03-24T05:50:04.895Z,100.00
2023-03-24T05:52:33.030Z,100.00
2023-03-24T05:55:15.951Z,100.00
2023-03-24T05:57:43.366Z,100.00
2023-03-24T06:00:30.454Z,100.00
2023-03-24T06:03:06.375Z,100.00
2023-03-24T06:05:39.542Z,100.00
2023-03-24T06:08:06.096Z,100.00
2023-03-24T06:10:36.695Z,100.00
2023-03-24T06:13:03.702Z,100.00
2023-03-24T06:15:31.679Z,100.00
2023-03-24T06:18:14.290Z,100.00
2023-03-24T06:20:41.323Z,100.00
2023-03-24T06:23:11.181Z,100.00
2023-03-24T06:25:53.279Z,100.00
2023-03-24T06:28:22.756Z,100.00
2023-03-24T06:30:50.070Z,100.00
2023-03-24T06:33:25.712Z,100.00
2023-03-24T06:35:53.414Z,100.00
2023-03-24T06:38:20.444Z,100.00
2023-03-24T06:40:47.082Z,100.00
2023-03-24T06:43:13.826Z,100.00
2023-03-24T06:45:44.414Z,100.00
2023-03-24T06:48:17.354Z,100.00
2023-03-24T06:50:44.290Z,100.00
2023-03-24T06:53:11.049Z,100.00
2023-03-24T06:55:38.313Z,100.00
2023-03-24T06:58:05.569Z,100.00
2023-03-24T07:01:01.852Z,100.00
2023-03-24T07:03:43.766Z,99.94
2023-03-24T07:06:26.161Z,100.00
2023-03-24T07:08:59.652Z,100.00
2023-03-24T07:11:27.920Z,100.00
2023-03-24T07:13:57.868Z,100.00
2023-03-24T07:16:24.523Z,100.00
2023-03-24T07:19:01.376Z,100.00
2023-03-24T07:21:33.097Z,99.99
2023-03-24T07:23:59.496Z,100.00
2023-03-24T07:26:35.463Z,99.61
2023-03-24T07:29:11.517Z,99.86
2023-03-24T07:32:07.876Z,99.57
2023-03-24T07:34:36.094Z,99.59
2023-03-24T07:37:03.151Z,99.21
2023-03-24T07:39:29.545Z,98.80
2023-03-24T07:41:56.061Z,98.36
2023-03-24T07:44:36.106Z,98.25
2023-03-24T07:47:02.428Z,98.13
2023-03-24T07:49:28.918Z,97.97
2023-03-24T07:52:06.295Z,96.65
2023-03-24T07:54:36.478Z,96.55
2023-03-24T07:57:02.920Z,96.15
2023-03-24T07:59:29.588Z,95.36
2023-03-24T08:02:15.444Z,95.05
2023-03-24T08:05:14.696Z,95.91
2023-03-24T08:07:55.477Z,96.05
2023-03-24T08:10:30.154Z,95.37
2023-03-24T08:12:57.497Z,95.59
2023-03-24T08:15:24.815Z,95.81
2023-03-24T08:17:51.575Z,96.16
2023-03-24T08:20:19.815Z,96.40
2023-03-24T08:22:49.683Z,96.46
2023-03-24T08:25:20.731Z,96.32
2023-03-24T08:27:47.496Z,95.55
2023-03-24T08:30:16.965Z,88.13
2023-03-24T08:32:52.431Z,86.67
2023-03-24T08:35:24.914Z,86.58
2023-03-24T08:37:51.605Z,90.11
2023-03-24T08:40:23.995Z,93.36
2023-03-24T08:42:59.434Z,95.52
2023-03-24T08:45:30.278Z,98.32
2023-03-24T08:47:58.989Z,97.79
2023-03-24T08:50:28.437Z,100.00
2023-03-24T08:52:56.686Z,100.00
2023-03-24T08:55:24.230Z,100.00
2023-03-24T08:57:51.010Z,100.00
2023-03-24T09:00:18.931Z,100.00
2023-03-24T09:02:47.397Z,100.00
2023-03-24T09:05:15.505Z,100.00
2023-03-24T09:07:42.444Z,100.00
2023-03-24T09:10:10.521Z,100.00
2023-03-24T09:12:37.953Z,100.00
2023-03-24T09:15:06.755Z,100.00
2023-03-24T09:17:33.586Z,100.00
2023-03-24T09:20:02.029Z,100.00
2023-03-24T09:22:28.666Z,100.00
2023-03-24T09:24:55.042Z,100.00
2023-03-24T09:27:23.181Z,100.00
2023-03-24T09:29:49.500Z,100.00
2023-03-24T09:32:15.831Z,100.00
2023-03-24T09:34:42.150Z,100.00
2023-03-24T09:37:08.586Z,100.00
2023-03-24T09:39:36.423Z,100.00
2023-03-24T09:42:08.856Z,100.00
2023-03-24T09:44:42.991Z,100.00
2023-03-24T09:47:29.666Z,100.00
2023-03-24T09:50:01.849Z,100.00
2023-03-24T09:52:35.017Z,100.00
2023-03-24T09:55:02.610Z,100.00
2023-03-24T09:57:42.163Z,100.00
2023-03-24T10:00:25.400Z,100.00
2023-03-24T10:02:54.260Z,100.00
2023-03-24T10:05:43.968Z,100.00
2023-03-24T10:08:28.538Z,100.00
2023-03-24T10:11:16.601Z,100.00
2023-03-24T10:13:48.653Z,100.00
2023-03-24T10:16:37.826Z,100.00
2023-03-24T10:19:34.738Z,100.00
2023-03-24T10:22:22.120Z,100.00
2023-03-24T10:24:59.596Z,100.00
2023-03-24T10:27:36.871Z,100.00
2023-03-24T10:30:14.044Z,100.00
2023-03-24T10:32:42.695Z,100.00
2023-03-24T10:35:15.897Z,100.00
2023-03-24T10:37:42.520Z,100.00
2023-03-24T10:40:16.446Z,100.00
2023-03-24T10:42:45.000Z,100.00
2023-03-24T10:45:25.453Z,100.00
2023-03-24T10:47:54.567Z,100.00
2023-03-24T10:50:24.643Z,95.33
2023-03-24T10:52:51.142Z,95.35
2023-03-24T10:55:20.407Z,97.35
2023-03-24T10:57:50.244Z,93.05
2023-03-24T11:00:29.443Z,94.03
2023-03-24T11:03:01.945Z,90.38
2023-03-24T11:05:39.620Z,92.06
2023-03-24T11:08:27.090Z,91.51
2023-03-24T11:10:53.534Z,87.61
2023-03-24T11:13:31.990Z,88.71
2023-03-24T11:16:16.226Z,84.19
2023-03-24T11:18:59.639Z,85.03
2023-03-24T11:21:31.283Z,82.05
2023-03-24T11:23:59.856Z,78.66
2023-03-24T11:26:35.763Z,78.93
2023-03-24T11:29:07.738Z,76.37
2023-03-24T11:31:39.048Z,75.00
2023-03-24T11:34:16.715Z,72.73
2023-03-24T11:37:09.243Z,73.52
2023-03-24T11:39:35.874Z,71.22
2023-03-24T11:42:11.816Z,66.18
2023-03-24T11:44:38.180Z,62.46
2023-03-24T11:47:12.702Z,60.94
2023-03-24T11:49:47.058Z,59.72
2023-03-24T11:52:23.971Z,58.70
2023-03-24T11:54:50.474Z,56.54
2023-03-24T11:57:29.194Z,56.54
2023-03-24T12:00:03.041Z,56.33
2023-03-24T12:03:02.368Z,59.32
2023-03-24T12:05:52.502Z,54.25
2023-03-24T12:08:23.742Z,56.18
2023-03-24T12:10:53.139Z,56.67
2023-03-24T12:13:48.954Z,53.07
2023-03-24T12:16:24.585Z,54.29
2023-03-24T12:19:13.208Z,52.32
2023-03-24T12:21:53.802Z,53.61
2023-03-24T12:24:38.699Z,53.14
2023-03-24T12:27:05.148Z,51.29
2023-03-24T12:29:57.906Z,47.03
2023-03-24T12:32:41.707Z,49.12
2023-03-24T12:35:23.412Z,46.05
2023-03-24T12:38:06.052Z,47.43
2023-03-24T12:40:57.625Z,44.16
2023-03-24T12:43:31.176Z,43.71
2023-03-24T12:46:03.411Z,45.41
2023-03-24T12:49:02.553Z,46.39
2023-03-24T12:51:47.608Z,44.37
2023-03-24T12:54:27.885Z,44.22
2023-03-24T12:56:59.053Z,44.82
2023-03-24T12:59:35.650Z,44.22
2023-03-24T13:02:12.176Z,44.20
2023-03-24T13:04:43.331Z,45.99
2023-03-24T13:07:14.452Z,44.65
2023-03-24T13:09:49.672Z,47.49
2023-03-24T13:12:31.027Z,49.20
2023-03-24T13:15:16.487Z,50.24
2023-03-24T13:18:09.496Z,50.11
2023-03-24T13:20:42.201Z,50.24
2023-03-24T13:23:43.990Z,49.88
2023-03-24T13:26:40.583Z,49.70
2023-03-24T13:29:29.260Z,48.65
2023-03-24T13:32:05.198Z,47.09
2023-03-24T13:34:40.258Z,46.91
2023-03-24T13:37:14.775Z,45.81
2023-03-24T13:39:44.581Z,45.08
2023-03-24T13:42:29.261Z,45.78
2023-03-24T13:44:55.771Z,44.28
2023-03-24T13:47:22.186Z,46.41
2023-03-24T13:50:04.482Z,45.45
2023-03-24T13:52:35.316Z,46.52
2023-03-24T13:55:08.296Z,48.17
2023-03-24T13:57:34.853Z,48.29
2023-03-24T14:00:07.962Z,49.26
2023-03-24T14:02:47.754Z,47.56
2023-03-24T14:05:23.918Z,47.12
2023-03-24T14:07:51.418Z,48.38
2023-03-24T14:10:18.985Z,48.69
2023-03-24T14:12:57.567Z,49.16
2023-03-24T14:15:31.997Z,50.44
2023-03-24T14:18:15.617Z,49.89
2023-03-24T14:20:57.066Z,49.89
2023-03-24T14:23:29.457Z,50.16
2023-03-24T14:25:56.422Z,50.20
2023-03-24T14:28:46.585Z,48.14
2023-03-24T14:31:15.504Z,48.35
2023-03-24T14:33:54.376Z,49.74
2023-03-24T14:36:30.335Z,49.19
2023-03-24T14:39:05.862Z,51.91
2023-03-24T14:41:38.906Z,50.03
2023-03-24T14:44:05.895Z,49.70
2023-03-24T14:46:42.381Z,51.83
2023-03-24T14:49:30.096Z,50.45
2023-03-24T14:52:12.729Z,50.21
2023-03-24T14:54:45.741Z,50.72
2023-03-24T14:57:20.300Z,49.32
2023-03-24T15:00:01.570Z,49.18
2023-03-24T15:02:37.374Z,49.00
2023-03-24T15:05:16.263Z,49.08
2023-03-24T15:07:43.682Z,50.59
2023-03-24T15:10:18.306Z,51.25
2023-03-24T15:12:49.075Z,49.51
2023-03-24T15:15:22.055Z,50.88
2023-03-24T15:17:50.137Z,50.35
2023-03-24T15:20:37.533Z,51.96
2023-03-24T15:23:08.000Z,52.07
2023-03-24T15:25:34.412Z,50.75
2023-03-24T15:28:00.776Z,51.28
2023-03-24T15:30:28.429Z,51.55
2023-03-24T15:32:54.943Z,50.07
2023-03-24T15:35:22.853Z,49.75
2023-03-24T15:37:56.191Z,50.20
2023-03-24T15:40:25.708Z,49.56
2023-03-24T15:42:53.770Z,49.83
2023-03-24T15:45:38.076Z,49.30
2023-03-24T15:48:08.977Z,49.76
2023-03-24T15:50:40.890Z,50.26
2023-03-24T15:53:24.633Z,49.72
2023-03-24T15:56:03.212Z,50.23
2023-03-24T15:58:32.192Z,50.63
2023-03-24T16:01:02.238Z,51.38
2023-03-24T16:03:30.730Z,51.33
2023-03-24T16:05:57.424Z,52.26
2023-03-24T16:08:31.881Z,55.31
2023-03-24T16:11:05.047Z,54.74
2023-03-24T16:13:31.393Z,53.37
2023-03-24T16:16:01.642Z,53.82
2023-03-24T16:18:33.644Z,54.62
2023-03-24T16:21:16.843Z,55.51
2023-03-24T16:23:44.796Z,55.09
2023-03-24T16:26:15.360Z,55.61
2023-03-24T16:28:42.097Z,56.22
2023-03-24T16:31:17.838Z,55.37
2023-03-24T16:33:44.239Z,53.89
2023-03-24T16:36:12.057Z,53.92
2023-03-24T16:38:38.385Z,53.85
2023-03-24T16:41:04.942Z,53.68
2023-03-24T16:43:33.189Z,53.93
2023-03-24T16:45:59.668Z,55.90
2023-03-24T16:48:26.031Z,53.94
2023-03-24T16:50:53.279Z,53.99
2023-03-24T16:53:19.624Z,53.66
2023-03-24T16:55:47.341Z,52.82
2023-03-24T16:58:16.246Z,54.69
2023-03-24T17:00:48.935Z,54.97
2023-03-24T17:03:15.854Z,54.63
2023-03-24T17:05:48.867Z,54.25
2023-03-24T17:08:16.634Z,53.84
2023-03-24T17:10:44.328Z,53.75
2023-03-24T17:13:18.723Z,53.73
2023-03-24T17:15:45.101Z,53.57
2023-03-24T17:18:11.572Z,56.40
2023-03-24T17:20:39.798Z,59.12
2023-03-24T17:23:09.158Z,61.21
2023-03-24T17:25:35.719Z,65.10
2023-03-24T17:28:02.963Z,70.70
2023-03-24T17:30:29.933Z,74.53
2023-03-24T17:32:57.561Z,76.95
2023-03-24T17:35:24.333Z,78.58
2023-03-24T17:37:53.642Z,78.74
2023-03-24T17:40:20.545Z,80.43
2023-03-24T17:42:47.243Z,83.61
2023-03-24T17:45:16.352Z,83.94
2023-03-24T17:47:43.526Z,82.86
2023-03-24T17:50:11.047Z,84.49
2023-03-24T17:52:39.315Z,86.11
2023-03-24T17:55:06.816Z,88.00
2023-03-24T17:57:34.057Z,87.61
2023-03-24T18:00:00.519Z,85.86
2023-03-24T18:02:27.144Z,88.42
2023-03-24T18:04:54.332Z,91.20
2023-03-24T18:07:20.721Z,93.88
2023-03-24T18:09:47.022Z,91.94
2023-03-24T18:12:13.485Z,92.15
2023-03-24T18:14:39.837Z,90.43
2023-03-24T18:17:06.853Z,90.18
2023-03-24T18:19:33.232Z,87.85
2023-03-24T18:21:59.526Z,85.22
2023-03-24T18:24:25.948Z,85.45
2023-03-24T18:26:52.363Z,83.34
2023-03-24T18:29:21.912Z,80.56
2023-03-24T18:31:48.549Z,80.33
2023-03-24T18:34:14.882Z,81.95
2023-03-24T18:36:41.251Z,85.03
2023-03-24T18:39:08.570Z,87.28
2023-03-24T18:41:38.900Z,89.73
2023-03-24T18:44:07.928Z,92.08
2023-03-24T18:46:34.732Z,92.92
2023-03-24T18:49:01.144Z,94.83
2023-03-24T18:51:28.900Z,94.24
2023-03-24T18:53:55.462Z,94.05
2023-03-24T18:56:22.973Z,92.21
2023-03-24T18:58:50.962Z,93.86
2023-03-24T19:01:22.348Z,91.54
2023-03-24T19:03:50.398Z,92.91
2023-03-24T19:06:17.429Z,92.13
2023-03-24T19:08:46.246Z,93.24
2023-03-24T19:11:14.498Z,91.15
2023-03-24T19:13:41.456Z,93.50
2023-03-24T19:16:10.221Z,93.58
2023-03-24T19:18:36.920Z,95.42
2023-03-24T19:21:03.951Z,94.58
2023-03-24T19:23:31.035Z,92.25
2023-03-24T19:25:57.350Z,92.47
2023-03-24T19:28:27.022Z,94.97
2023-03-24T19:30:53.366Z,94.78
2023-03-24T19:33:20.406Z,94.89
2023-03-24T19:35:48.237Z,95.00
2023-03-24T19:38:15.814Z,96.32
2023-03-24T19:40:42.356Z,97.51
2023-03-24T19:43:09.226Z,97.11
2023-03-24T19:45:35.964Z,96.56
2023-03-24T19:48:02.338Z,98.63
2023-03-24T19:50:28.676Z,97.37
2023-03-24T19:52:55.250Z,98.16
2023-03-24T19:55:21.552Z,97.62
2023-03-24T19:57:47.912Z,97.83
2023-03-24T20:00:14.861Z,97.51
2023-03-24T20:02:41.530Z,98.89
2023-03-24T20:05:08.997Z,98.72
2023-03-24T20:07:35.706Z,98.99
2023-03-24T20:10:02.139Z,97.14
2023-03-24T20:12:28.521Z,96.54
2023-03-24T20:14:55.459Z,98.13
2023-03-24T20:17:23.365Z,98.48
2023-03-24T20:19:50.597Z,98.78
2023-03-24T20:22:16.928Z,98.08
2023-03-24T20:24:44.335Z,97.61
2023-03-24T20:27:11.166Z,97.19
2023-03-24T20:29:39.479Z,99.20
2023-03-24T20:32:08.037Z,97.12
2023-03-24T20:34:34.377Z,100.00
2023-03-24T20:37:00.809Z,99.80
2023-03-24T20:39:27.132Z,99.46
2023-03-24T20:41:53.436Z,100.00
2023-03-24T20:44:19.749Z,99.54
2023-03-24T20:46:46.136Z,100.00
2023-03-24T20:49:16.355Z,100.00
2023-03-24T20:51:43.729Z,100.00
2023-03-24T20:54:10.273Z,100.00
2023-03-24T20:56:37.202Z,100.00
2023-03-24T20:59:07.274Z,100.00
2023-03-24T21:01:35.935Z,100.00
2023-03-24T21:04:09.011Z,100.00
2023-03-24T21:06:38.028Z,100.00
2023-03-24T21:09:04.758Z,100.00
2023-03-24T21:11:32.266Z,98.92
2023-03-24T21:13:59.120Z,98.42
2023-03-24T21:16:26.608Z,95.65
2023-03-24T21:18:54.181Z,97.30
2023-03-24T21:21:20.933Z,95.65
2023-03-24T21:23:47.361Z,97.17
2023-03-24T21:26:16.785Z,95.55
2023-03-24T21:28:43.761Z,95.17
2023-03-24T21:31:25.103Z,97.23
2023-03-24T21:33:51.949Z,94.99
2023-03-24T21:36:19.249Z,95.34
2023-03-24T21:38:45.850Z,96.41
2023-03-24T21:41:12.144Z,94.01
2023-03-24T21:43:40.150Z,93.92
2023-03-24T21:46:06.587Z,93.64
2023-03-24T21:48:34.892Z,95.53
2023-03-24T21:51:03.630Z,95.10
2023-03-24T21:53:29.952Z,94.40
2023-03-24T21:56:04.795Z,93.19
2023-03-24T21:58:32.501Z,94.56
2023-03-24T22:00:59.733Z,94.93
2023-03-24T22:03:26.988Z,92.73
2023-03-24T22:05:56.948Z,91.21
2023-03-24T22:08:26.407Z,91.45
2023-03-24T22:10:58.017Z,91.19
2023-03-24T22:13:28.357Z,90.65
2023-03-24T22:15:56.195Z,91.11
2023-03-24T22:18:24.096Z,91.83
2023-03-24T22:21:03.545Z,92.66
2023-03-24T22:23:33.200Z,92.01
2023-03-24T22:26:05.005Z,92.23
2023-03-24T22:28:33.629Z,93.21
2023-03-24T22:31:16.136Z,91.54
2023-03-24T22:33:44.009Z,92.91
2023-03-24T22:36:11.191Z,92.15
2023-03-24T22:38:37.505Z,91.31
2023-03-24T22:41:06.366Z,90.19
2023-03-24T22:43:34.798Z,92.04
2023-03-24T22:46:01.162Z,89.71
2023-03-24T22:48:27.567Z,89.00
2023-03-24T22:50:53.861Z,89.08
2023-03-24T22:53:20.710Z,91.15
2023-03-24T22:55:47.524Z,89.44
2023-03-24T22:58:14.585Z,88.84
2023-03-24T23:00:43.177Z,87.90
2023-03-24T23:03:10.342Z,87.97
2023-03-24T23:05:45.400Z,90.00
2023-03-24T23:08:14.196Z,88.77
2023-03-24T23:10:43.007Z,87.38
2023-03-24T23:13:10.424Z,89.28
2023-03-24T23:15:37.773Z,87.81
2023-03-24T23:18:04.477Z,87.69
2023-03-24T23:20:31.011Z,88.02
2023-03-24T23:22:57.296Z,86.62
2023-03-24T23:25:23.813Z,86.59
2023-03-24T23:27:50.328Z,86.78
2023-03-24T23:30:17.040Z,87.01
2023-03-24T23:32:46.796Z,86.74
2023-03-24T23:35:13.480Z,86.00
2023-03-24T23:37:39.834Z,86.31
2023-03-24T23:40:12.394Z,85.75
2023-03-24T23:42:40.598Z,86.07
2023-03-24T23:45:08.961Z,85.30
2023-03-24T23:47:36.440Z,86.22
2023-03-24T23:50:05.219Z,85.43
2023-03-24T23:52:31.596Z,86.81
2023-03-24T23:54:58.405Z,87.07
2023-03-24T23:57:24.848Z,85.97
2023-03-24T23:59:53.009Z,86.08
